Terminal Aerodrome Forecast
Issued by NWS Tulsa, OK

Home | Current Version | Previous Version | Text Only | Print | Product List | Glossary On
Versions: 1 2 3 4 5 6 7 8 9 10 11 12 13 14
256
FTUS44 KTSA 101724
TAFTUL
TAF
KTUL 101724Z 1018/1118 17014G23KT P6SM BKN060
     FM110100 16012KT P6SM SCT060 BKN250
     FM110900 17012G20KT P6SM BKN025
     FM111200 17015G25KT P6SM OVC015=

USA.gov is the U.S. government's official web portal to all federal, state and local government web resources and services.